Ibiraiaras, Brazil
Current Conditions -  °F | °C
As of 11:00 PM on Sunday 21 Dec 2014 (Local Time) from SBCH Reporting Station
Light Fog Light Fog  
Wind Chill: 19°   Ceiling: 300
Heat Index: 19°   Visibility: 1.8mi
Dew Point: 19°   Wind: 2mph
Humidity: 100%   Direction: 290°WNW
Pressure: 29.8"   Gusts: NA
Location:  28.41°S, 51.72°W
Report Text: SBCH 220100Z 29002KT 3000 BCFG BKN003 BKN040 OVC100 19/19 Q1009
Loading
Personal Weather Stations






























Interactive Weather Map New forecast layout! Learn more

10-Day Weather Forecast

Advertisements
Track Severe Weather on mobile